ΕΜΥ, Εθνική Μετεωρολογική Υπηρεσία - Δελτία Καιρού, Προγνώσεις

ΑΕΡΟΝΑΥΤΙΛΙΑ

GREEK AIRPORTS CODES

LGNX 020950Z 32012KT 9999 FEW020 BKN030 15/08 Q1010=

EUROPEAN AIRPORTS CODES

LEMD 021200Z 05004KT 350V120 9999 SCT039 15/05 Q1012 NOSIG=